Wetterdaten: aktuell Sonntag, 17.01.2021 13:10
Datum Zeit Temp. A. Feuchte A. Luftdruck Regen Wind Richtung Richtung Taupunkt Windchill Windben
17.01.2021 13:10 -1,0 C 84 % 1021,0 hPa 0,0 l/m 3,2 km/h (1 Bft) W 270 -3,4 C -1,0 C 4,8 km/h (1 Bft)
17.01.2021 12:10 -1,2 C 85 % 1021,0 hPa 0,0 l/m 6,4 km/h (2 Bft) W-SW 247 -3,4 C -1,2 C 11,3 km/h (2 Bft)
17.01.2021 11:10 -2,3 C 89 % 1021,0 hPa 0,0 l/m 4,8 km/h (1 Bft) SW 225 -3,9 C -2,3 C 4,8 km/h (1 Bft)
17.01.2021 10:10 -3,9 C 91 % 1020,5 hPa 0,0 l/m 3,2 km/h (1 Bft) SW 225 -5,1 C -3,9 C 3,2 km/h (1 Bft)
17.01.2021 09:10 -5,2 C 91 % 1020,4 hPa 0,0 l/m 0,0 km/h (0 Bft) SW 225 -6,4 C -5,2 C 1,6 km/h (1 Bft)
17.01.2021 08:10 -5,6 C 91 % 1020,1 hPa 0,0 l/m 1,6 km/h (1 Bft) SW 225 -6,8 C -5,6 C 3,2 km/h (1 Bft)
17.01.2021 07:10 -5,9 C 91 % 1019,8 hPa 0,0 l/m 0,0 km/h (0 Bft) N 0 -7,1 C -5,9 C 0,0 km/h (0 Bft)
17.01.2021 06:10 -6,5 C 91 % 1019,8 hPa 0,0 l/m 0,0 km/h (0 Bft) N 0 -7,7 C -6,5 C 0,0 km/h (0 Bft)
17.01.2021 05:10 -7,6 C 90 % 1019,8 hPa 0,0 l/m 0,0 km/h (0 Bft) N 0 -8,9 C -7,6 C 0,0 km/h (0 Bft)
17.01.2021 04:10 -8,7 C 90 % 1020,1 hPa 0,0 l/m 0,0 km/h (0 Bft) N 0 -10,0 C -8,7 C 0,0 km/h (0 Bft)
17.01.2021 03:10 -8,7 C 89 % 1020,8 hPa 0,0 l/m 0,0 km/h (0 Bft) N 0 -10,2 C -8,7 C 0,0 km/h (0 Bft)
17.01.2021 02:10 -8,6 C 89 % 1021,3 hPa 0,0 l/m 0,0 km/h (0 Bft) N 0 -10,1 C -8,6 C 0,0 km/h (0 Bft)
17.01.2021 01:10 -8,7 C 89 % 1022,2 hPa 0,0 l/m 1,6 km/h (1 Bft) SW 225 -10,2 C -8,7 C 3,2 km/h (1 Bft)
17.01.2021 00:10 -8,6 C 88 % 1023,1 hPa 0,0 l/m 0,0 km/h (0 Bft) N 0 -10,2 C -8,6 C 0,0 km/h (0 Bft)
16.01.2021 23:10 -8,1 C 87 % 1023,9 hPa 0,0 l/m 0,0 km/h (0 Bft) N 0 -9,9 C -8,1 C 0,0 km/h (0 Bft)
16.01.2021 22:10 -7,9 C 86 % 1024,4 hPa 0,0 l/m 3,2 km/h (1 Bft) SW 225 -9,8 C -7,9 C 3,2 km/h (1 Bft)
16.01.2021 21:10 -7,3 C 85 % 1024,7 hPa 0,0 l/m 8,0 km/h (2 Bft) S-SW 202 -9,4 C -9,3 C 8,0 km/h (2 Bft)
16.01.2021 20:10 -7,2 C 84 % 1025,2 hPa 0,0 l/m 8,0 km/h (2 Bft) S-SW 202 -9,4 C -9,2 C 8,0 km/h (2 Bft)
16.01.2021 19:10 -5,5 C 82 % 1025,3 hPa 0,0 l/m 8,0 km/h (2 Bft) S-SW 202 -8,1 C -7,4 C 9,7 km/h (2 Bft)
16.01.2021 18:10 -3,4 C 81 % 1025,6 hPa 0,0 l/m 11,3 km/h (2 Bft) SW 225 -6,2 C -8,3 C 12,9 km/h (3 Bft)
16.01.2021 17:10 -3,3 C 79 % 1025,6 hPa 0,0 l/m 11,3 km/h (2 Bft) S-SW 202 -6,4 C -8,2 C 14,5 km/h (3 Bft)
16.01.2021 16:10 -1,2 C 72 % 1025,5 hPa 0,0 l/m 16,1 km/h (3 Bft) W-SW 247 -5,6 C -9,1 C 20,9 km/h (4 Bft)
16.01.2021 15:10 -1,6 C 75 % 1025,9 hPa 0,0 l/m 8,0 km/h (2 Bft) W 270 -5,4 C -3,3 C 12,9 km/h (3 Bft)
16.01.2021 14:10 -1,6 C 78 % 1026,3 hPa 0,0 l/m 12,9 km/h (3 Bft) W-SW 247 -4,9 C -7,5 C 17,7 km/h (3 Bft)
16.01.2021 14:00 -1,3 C 77 % 1026,4 hPa 0,0 l/m 16,1 km/h (3 Bft) W 270 -4,8 C -9,2 C 20,9 km/h (4 Bft)
_ Min-Zeit 00:44 16:16 04:55 - 22:38 - - 00:44 20:23 22:38
Minimum _ -8,9 C 71 % 1019,7 hPa - 0,0 km/h (0 Bft) - - -10,5 C -11,2 C 0,0 km/h (0 Bft)
_ Max-Zeit 12:25 05:21 14:01 14:00 14:29 - - 12:32 12:32 14:35
Maximum _ -0,9 C 91 % 1026,5 hPa 0,0 l/m 17,7 km/h
W (3 Bft)
- - -3,1 C -0,9 C 27,4 km/h
SW (4 Bft)
Durchschnitt _ -5,2 C 85 % 1022,9 hPa #0,0 l/m 4,9 km/h (1 Bft) SW - -7,3 C -6,7 C 6,5 km/h (2 Bft)